Time;durP1;ratioP1;P1;durP2;ratioP2;P2;SDS_P1;SDS_P2;PMS_P1;PMS_P2;Temp;Humidity;BMP_temperature;BMP_pressure;BME280_temperature;BME280_humidity;BME280_pressure;Samples;Min_cycle;Max_cycle;Signal;HPM_P1;HPM_P2
2022/01/22 00:02:22;;;;;;;1999.90;999.90;;;4.70;99.90;;;;;;5071653;28;20178;-73
2022/01/22 00:04:48;;;;;;;1999.90;999.90;;;4.70;99.90;;;;;;5071389;28;20209;-73
2022/01/22 00:07:13;;;;;;;1999.90;999.90;;;4.70;99.90;;;;;;5071638;28;20229;-73
2022/01/22 00:09:46;;;;;;;1999.90;999.90;;;4.70;99.90;;;;;;5071544;28;20174;-72
2022/01/22 00:12:23;;;;;;;1999.90;999.90;;;4.70;99.90;;;;;;5071572;28;20167;-73
2022/01/22 00:14:48;;;;;;;1999.90;999.90;;;4.70;99.90;;;;;;5071313;28;20167;-73
2022/01/22 00:17:14;;;;;;;1999.90;999.90;;;4.70;99.90;;;;;;5071495;28;20245;-73
2022/01/22 00:19:40;;;;;;;1999.90;999.90;;;4.70;99.90;;;;;;5071440;28;20172;-73
2022/01/22 00:22:05;;;;;;;1999.90;999.90;;;4.70;99.90;;;;;;5071394;28;20706;-72
2022/01/22 00:24:37;;;;;;;1999.90;999.90;;;4.70;99.90;;;;;;5071077;28;20191;-73
2022/01/22 00:27:03;;;;;;;1999.90;999.90;;;4.70;99.90;;;;;;5075372;28;20573;-73
2022/01/22 00:29:29;;;;;;;1999.90;999.90;;;4.70;99.90;;;;;;5075239;28;20398;-72
2022/01/22 00:31:54;;;;;;;1999.90;999.90;;;4.70;99.90;;;;;;5075125;28;20427;-71
2022/01/22 00:34:20;;;;;;;1999.90;999.90;;;4.70;99.90;;;;;;5056877;28;20179;-72
2022/01/22 00:36:46;;;;;;;1999.90;999.90;;;4.70;99.90;;;;;;5074978;28;20163;-73
2022/01/22 00:39:11;;;;;;;1999.90;999.90;;;4.70;99.90;;;;;;5074877;28;20218;-72
2022/01/22 00:41:37;;;;;;;1999.90;999.90;;;4.70;99.90;;;;;;5075009;28;20175;-72
2022/01/22 00:44:03;;;;;;;1999.90;999.90;;;4.70;99.90;;;;;;5074628;28;20222;-72
2022/01/22 00:46:29;;;;;;;1999.90;999.90;;;4.60;99.90;;;;;;5074908;28;20685;-72
2022/01/22 00:48:54;;;;;;;1999.90;999.90;;;4.70;99.90;;;;;;5074807;28;20236;-72
2022/01/22 00:51:20;;;;;;;1999.90;999.90;;;4.70;99.90;;;;;;5074786;28;20163;-73
2022/01/22 00:53:46;;;;;;;1999.90;999.90;;;4.70;99.90;;;;;;5074790;28;20282;-72
2022/01/22 00:56:13;;;;;;;1999.90;999.90;;;4.60;99.90;;;;;;5074440;28;20632;-72
2022/01/22 00:58:39;;;;;;;1999.90;999.90;;;4.70;99.90;;;;;;5074659;28;20809;-73
2022/01/22 01:01:05;;;;;;;1999.90;999.90;;;4.70;99.90;;;;;;5074656;28;20179;-73
2022/01/22 01:03:33;;;;;;;1999.90;999.90;;;4.70;99.90;;;;;;5074605;28;20246;-72
2022/01/22 01:05:59;;;;;;;1999.90;999.90;;;4.60;99.90;;;;;;5074149;28;20179;-72
2022/01/22 01:08:27;;;;;;;1999.90;999.90;;;4.60;99.90;;;;;;5074581;28;20425;-72
2022/01/22 01:10:53;;;;;;;1999.90;999.90;;;4.60;99.90;;;;;;5074597;28;20886;-72
2022/01/22 01:13:19;;;;;;;1999.90;999.90;;;4.60;99.90;;;;;;5074634;28;20459;-72
2022/01/22 01:32:49;;;;;;;1999.90;999.90;;;4.40;99.90;;;;;;5074172;28;20675;-71
2022/01/22 01:35:15;;;;;;;1999.90;999.90;;;4.40;99.90;;;;;;5073716;28;20174;-71
2022/01/22 01:37:41;;;;;;;1999.90;999.90;;;4.40;99.90;;;;;;5072913;28;20194;-71
2022/01/22 01:40:09;;;;;;;1999.90;999.90;;;4.40;99.90;;;;;;5073942;28;20186;-72
2022/01/22 01:45:07;;;;;;;1999.90;999.90;;;4.40;99.90;;;;;;5073535;28;20230;-72
2022/01/22 01:47:34;;;;;;;1999.90;999.90;;;4.50;99.90;;;;;;5073694;28;20182;-72
2022/01/22 01:50:00;;;;;;;1999.90;999.90;;;4.40;99.90;;;;;;5073549;28;20166;-71
2022/01/22 01:52:38;;;;;;;1999.90;999.90;;;4.50;99.90;;;;;;5073861;28;20213;-73
2022/01/22 01:55:11;;;;;;;1999.90;999.90;;;4.50;99.90;;;;;;5073325;28;20178;-73
2022/01/22 01:57:40;;;;;;;1999.90;999.90;;;4.40;99.90;;;;;;5073489;28;20242;-71
2022/01/22 02:00:15;;;;;;;1999.90;999.90;;;4.40;99.90;;;;;;5073381;28;20270;-71
2022/01/22 02:02:42;;;;;;;1999.90;999.90;;;4.40;99.90;;;;;;5073668;28;20183;-72
2022/01/22 02:05:10;;;;;;;1999.90;999.90;;;4.50;99.90;;;;;;5073309;28;20295;-72
2022/01/22 02:07:38;;;;;;;1999.90;999.90;;;4.50;99.90;;;;;;5073314;28;20205;-72
2022/01/22 02:10:07;;;;;;;1999.90;999.90;;;4.40;99.90;;;;;;5090377;28;20402;-74
2022/01/22 02:23:45;;;;;;;1999.90;999.90;;;4.40;99.90;;;;;;5091549;28;20202;-75
2022/01/22 02:26:13;;;;;;;1999.90;999.90;;;4.40;99.90;;;;;;5091002;28;20173;-74
2022/01/22 02:28:39;;;;;;;1999.90;999.90;;;4.30;99.90;;;;;;5091384;28;20191;-73
2022/01/22 02:31:18;;;;;;;1999.90;999.90;;;4.30;99.90;;;;;;5090293;28;20170;-74
2022/01/22 02:37:01;;;;;;;1999.90;999.90;;;4.30;99.90;;;;;;5028272;28;20200;-75
2022/01/22 02:39:41;;;;;;;1999.90;999.90;;;4.30;99.90;;;;;;5028054;28;20172;-73
2022/01/22 02:42:07;;;;;;;1999.90;999.90;;;4.30;99.90;;;;;;5067220;28;20245;-75
2022/01/22 02:44:34;;;;;;;1999.90;999.90;;;4.30;99.90;;;;;;5088980;28;20274;-74
2022/01/22 02:47:02;;;;;;;1999.90;999.90;;;4.30;99.90;;;;;;5090297;28;20167;-74
2022/01/22 02:49:28;;;;;;;1999.90;999.90;;;4.30;99.90;;;;;;5091027;28;20560;-73
2022/01/22 02:51:59;;;;;;;1999.90;999.90;;;4.50;99.90;;;;;;5091344;28;20167;-74
2022/01/22 02:54:24;;;;;;;1999.90;999.90;;;4.40;99.90;;;;;;5093000;28;20168;-74
2022/01/22 02:56:50;;;;;;;1999.90;999.90;;;4.40;99.90;;;;;;5091216;28;20446;-74
2022/01/22 02:59:21;;;;;;;1999.90;999.90;;;4.40;99.90;;;;;;5091108;28;20178;-74
2022/01/22 03:01:47;;;;;;;1999.90;999.90;;;4.40;99.90;;;;;;5090084;28;20232;-74
2022/01/22 03:04:12;;;;;;;1999.90;999.90;;;4.40;99.90;;;;;;5090016;28;20207;-74
2022/01/22 03:06:38;;;;;;;1999.90;999.90;;;4.40;99.90;;;;;;5091115;28;20169;-74
2022/01/22 03:09:07;;;;;;;1999.90;999.90;;;4.50;99.90;;;;;;5088918;28;20183;-73
2022/01/22 03:11:41;;;;;;;1999.90;999.90;;;4.40;99.90;;;;;;5090087;28;20159;-74
2022/01/22 03:16:50;;;;;;;1999.90;999.90;;;4.50;99.90;;;;;;5089739;28;20175;-75
2022/01/22 03:19:33;;;;;;;1999.90;999.90;;;4.50;99.90;;;;;;5088600;28;20563;-73
2022/01/22 03:22:14;;;;;;;1999.90;999.90;;;4.40;99.90;;;;;;5088091;28;20183;-74
2022/01/22 03:27:26;;;;;;;1999.90;999.90;;;4.40;99.90;;;;;;5089851;28;20275;-73
2022/01/22 03:29:52;;;;;;;1999.90;999.90;;;4.40;99.90;;;;;;5089542;28;20431;-73
2022/01/22 03:32:19;;;;;;;1999.90;999.90;;;4.40;99.90;;;;;;5072668;28;20171;-74
2022/01/22 03:34:56;;;;;;;1999.90;999.90;;;4.40;99.90;;;;;;5070648;28;20180;-74
2022/01/22 03:37:23;;;;;;;1999.90;999.90;;;4.40;99.90;;;;;;5126243;22;20687;-76
2022/01/22 03:39:49;;;;;;;1999.90;999.90;;;4.50;99.90;;;;;;5091635;28;20301;-74
2022/01/22 03:42:15;;;;;;;1999.90;999.90;;;4.50;99.90;;;;;;5092051;28;20487;-75
2022/01/22 03:44:40;;;;;;;1999.90;999.90;;;4.50;99.90;;;;;;5091772;28;20331;-74
2022/01/22 03:47:06;;;;;;;1999.90;999.90;;;4.50;99.90;;;;;;5091983;28;20169;-74
2022/01/22 03:49:32;;;;;;;1999.90;999.90;;;4.50;99.90;;;;;;5091969;28;20189;-74
2022/01/22 03:51:58;;;;;;;1999.90;999.90;;;4.50;99.90;;;;;;5091997;28;20434;-75
2022/01/22 03:54:24;;;;;;;1999.90;999.90;;;4.50;99.90;;;;;;5091670;28;20178;-74
2022/01/22 03:56:52;;;;;;;1999.90;999.90;;;4.60;99.90;;;;;;5091953;28;20208;-75
2022/01/22 03:59:17;;;;;;;1999.90;999.90;;;4.60;99.90;;;;;;5091873;28;20273;-74
2022/01/22 04:04:36;;;;;;;1999.90;999.90;;;4.60;99.90;;;;;;5095696;28;20193;-74
2022/01/22 04:09:53;;;;;;;1999.90;999.90;;;4.60;99.90;;;;;;5057466;28;20767;-75
2022/01/22 04:12:26;;;;;;;1999.90;999.90;;;4.60;99.90;;;;;;5077648;28;20202;-75
2022/01/22 04:14:59;;;;;;;1999.90;999.90;;;4.60;99.90;;;;;;5095566;28;20253;-74
2022/01/22 04:25:32;;;;;;;1999.90;999.90;;;4.60;99.90;;;;;;5095233;28;20509;-74
2022/01/22 04:27:58;;;;;;;1999.90;999.90;;;4.60;99.90;;;;;;5095476;28;20779;-74
2022/01/22 04:30:25;;;;;;;1999.90;999.90;;;4.60;99.90;;;;;;5095425;28;20231;-74
2022/01/22 04:32:51;;;;;;;1999.90;999.90;;;4.70;99.90;;;;;;5095460;28;20162;-75
2022/01/22 04:35:18;;;;;;;1999.90;999.90;;;4.60;99.90;;;;;;5095148;28;20181;-75
2022/01/22 04:37:46;;;;;;;1999.90;999.90;;;4.70;99.90;;;;;;5095198;28;20573;-74
2022/01/22 04:40:12;;;;;;;1999.90;999.90;;;4.70;99.90;;;;;;5095364;28;20766;-74
2022/01/22 04:42:40;;;;;;;1999.90;999.90;;;4.70;99.90;;;;;;5077016;28;20179;-74
2022/01/22 04:48:10;;;;;;;1999.90;999.90;;;4.70;99.90;;;;;;5095302;28;20182;-74
2022/01/22 04:55:46;;;;;;;1999.90;999.90;;;4.70;99.90;;;;;;5094951;28;20170;-74
2022/01/22 04:58:12;;;;;;;1999.90;999.90;;;4.80;99.90;;;;;;5094920;28;20182;-74
2022/01/22 05:00:41;;;;;;;1999.90;999.90;;;4.70;99.90;;;;;;5094651;28;20419;-74
2022/01/22 05:03:07;;;;;;;1999.90;999.90;;;4.70;99.90;;;;;;5094888;28;20239;-74
2022/01/22 05:05:33;;;;;;;1999.90;999.90;;;4.80;99.90;;;;;;5094419;28;20440;-74
2022/01/22 05:07:59;;;;;;;1999.90;999.90;;;4.80;99.90;;;;;;5094700;28;20212;-75
2022/01/22 05:10:25;;;;;;;1999.90;999.90;;;4.80;99.90;;;;;;5094850;28;20163;-74
2022/01/22 05:12:53;;;;;;;1999.90;999.90;;;4.90;99.90;;;;;;5093391;28;20665;-74
2022/01/22 05:15:19;;;;;;;1999.90;999.90;;;4.90;99.90;;;;;;5094328;28;20436;-74
2022/01/22 05:17:45;;;;;;;1999.90;999.90;;;4.90;99.90;;;;;;5094524;28;20221;-74
2022/01/22 05:20:25;;;;;;;1999.90;999.90;;;4.90;99.90;;;;;;5094492;28;20196;-74
2022/01/22 05:25:41;;;;;;;1999.90;999.90;;;4.90;99.90;;;;;;5094239;28;20194;-74
2022/01/22 05:38:23;;;;;;;1999.90;999.90;;;4.90;99.90;;;;;;5094406;28;20295;-74
2022/01/22 05:40:49;;;;;;;1999.90;999.90;;;4.80;99.90;;;;;;5094179;28;20167;-74
2022/01/22 05:43:14;;;;;;;1999.90;999.90;;;4.80;99.90;;;;;;5093982;28;20960;-74
2022/01/22 05:45:42;;;;;;;1999.90;999.90;;;4.80;99.90;;;;;;5093782;28;20414;-74
2022/01/22 05:48:08;;;;;;;1999.90;999.90;;;4.90;99.90;;;;;;5093910;28;20174;-74
2022/01/22 05:50:50;;;;;;;1999.90;999.90;;;4.90;99.90;;;;;;5093970;28;20173;-74
2022/01/22 06:01:13;;;;;;;1999.90;999.90;;;4.90;99.90;;;;;;5094114;28;20428;-74
2022/01/22 06:03:39;;;;;;;1999.90;999.90;;;4.90;99.90;;;;;;5093614;28;20455;-74
2022/01/22 06:06:05;;;;;;;1999.90;999.90;;;4.90;99.90;;;;;;5093414;28;20655;-75
2022/01/22 06:08:33;;;;;;;1999.90;999.90;;;5.00;99.90;;;;;;5093613;28;20269;-74
2022/01/22 06:11:07;;;;;;;1999.90;999.90;;;4.90;99.90;;;;;;5093607;28;20159;-74
2022/01/22 06:13:54;;;;;;;1999.90;999.90;;;4.90;99.90;;;;;;5093722;28;20900;-74
2022/01/22 06:16:21;;;;;;;1999.90;999.90;;;4.90;99.90;;;;;;5092538;28;20440;-74
2022/01/22 06:18:48;;;;;;;1999.90;999.90;;;4.90;99.90;;;;;;5093344;28;20425;-74
2022/01/22 06:21:14;;;;;;;1999.90;999.90;;;4.90;99.90;;;;;;5093348;28;20396;-74
2022/01/22 06:23:40;;;;;;;1999.90;999.90;;;4.90;99.90;;;;;;5092922;28;20206;-74
2022/01/22 06:26:07;;;;;;;1999.90;999.90;;;4.90;99.90;;;;;;5093045;28;20908;-74
2022/01/22 06:28:34;;;;;;;1999.90;999.90;;;4.90;99.90;;;;;;5093051;28;20430;-74
2022/01/22 06:31:00;;;;;;;1999.90;999.90;;;4.90;99.90;;;;;;5093114;28;20400;-74
2022/01/22 06:33:27;;;;;;;1999.90;999.90;;;4.90;99.90;;;;;;5093038;28;20177;-74
2022/01/22 06:35:53;;;;;;;1999.90;999.90;;;4.90;99.90;;;;;;5092767;28;20162;-74
2022/01/22 06:38:19;;;;;;;1999.90;999.90;;;4.90;99.90;;;;;;5092823;28;20968;-74
2022/01/22 06:43:30;;;;;;;1999.90;999.90;;;5.00;99.90;;;;;;5092806;28;20243;-74
2022/01/22 06:45:56;;;;;;;1999.90;999.90;;;5.00;99.90;;;;;;5092661;28;20240;-74
2022/01/22 06:48:21;;;;;;;1999.90;999.90;;;5.10;99.90;;;;;;5092777;28;20434;-74
2022/01/22 06:50:47;;;;;;;1999.90;999.90;;;5.00;99.90;;;;;;5092687;28;20525;-74
2022/01/22 06:53:13;;;;;;;1999.90;999.90;;;5.10;99.90;;;;;;5092940;28;20166;-74
2022/01/22 06:55:45;;;;;;;1999.90;999.90;;;5.00;99.90;;;;;;5092798;28;20158;-74
2022/01/22 06:58:11;;;;;;;1999.90;999.90;;;5.00;99.90;;;;;;5092614;28;20431;-74
2022/01/22 07:00:37;;;;;;;1999.90;999.90;;;5.10;99.90;;;;;;5092725;28;20503;-74
2022/01/22 07:03:04;;;;;;;1999.90;999.90;;;5.10;99.90;;;;;;5092662;28;20701;-74
2022/01/22 07:05:29;;;;;;;1999.90;999.90;;;5.10;99.90;;;;;;5092218;28;20202;-74
2022/01/22 07:07:55;;;;;;;1999.90;999.90;;;5.10;99.90;;;;;;5092555;28;20785;-74
2022/01/22 07:10:22;;;;;;;1999.90;999.90;;;5.10;99.90;;;;;;5092445;28;20166;-74
2022/01/22 07:12:47;;;;;;;1999.90;999.90;;;5.10;99.90;;;;;;5092291;28;20405;-74
2022/01/22 07:15:13;;;;;;;1999.90;999.90;;;5.10;99.90;;;;;;5092210;28;20170;-74
2022/01/22 07:17:40;;;;;;;1999.90;999.90;;;5.10;99.90;;;;;;5092286;28;20193;-74
2022/01/22 07:20:15;;;;;;;1999.90;999.90;;;5.10;99.90;;;;;;5092392;28;20260;-74
2022/01/22 07:22:50;;;;;;;1999.90;999.90;;;5.10;99.90;;;;;;5092355;28;20853;-74
2022/01/22 07:25:17;;;;;;;1999.90;999.90;;;5.10;99.90;;;;;;5091903;28;20943;-74
2022/01/22 07:27:44;;;;;;;1999.90;999.90;;;5.00;99.90;;;;;;5092103;28;20476;-74
2022/01/22 07:30:10;;;;;;;1999.90;999.90;;;5.00;99.90;;;;;;5092247;28;20400;-74
2022/01/22 07:32:40;;;;;;;1999.90;999.90;;;5.00;99.90;;;;;;5092148;28;20166;-75
2022/01/22 07:35:06;;;;;;;1999.90;999.90;;;5.00;99.90;;;;;;5091148;28;20162;-76
2022/01/22 07:37:32;;;;;;;1999.90;999.90;;;5.00;99.90;;;;;;5091823;28;20557;-74
2022/01/22 07:39:58;;;;;;;1999.90;999.90;;;5.10;99.90;;;;;;5092127;28;20423;-74
2022/01/22 07:42:23;;;;;;;1999.90;999.90;;;5.10;99.90;;;;;;5092023;28;20408;-74
2022/01/22 07:44:49;;;;;;;1999.90;999.90;;;5.10;99.90;;;;;;5091738;28;20197;-74
2022/01/22 07:47:15;;;;;;;1999.90;999.90;;;5.10;99.90;;;;;;5091941;28;20198;-74
2022/01/22 07:49:41;;;;;;;1999.90;999.90;;;5.20;99.90;;;;;;5073864;28;20177;-75
2022/01/22 07:52:07;;;;;;;1999.90;999.90;;;5.30;99.90;;;;;;5091977;28;20181;-75
2022/01/22 07:54:33;;;;;;;1999.90;999.90;;;5.30;99.90;;;;;;5091566;28;20405;-76
2022/01/22 07:56:59;;;;;;;1999.90;999.90;;;5.30;99.90;;;;;;5091907;28;20404;-75
2022/01/22 07:59:25;;;;;;;1999.90;999.90;;;5.30;99.90;;;;;;5091834;28;20239;-74
2022/01/22 08:01:51;;;;;;;1999.90;999.90;;;5.30;99.90;;;;;;5091876;28;20404;-74
2022/01/22 08:04:23;;;;;;;1999.90;999.90;;;5.30;99.90;;;;;;5091550;28;20247;-74
2022/01/22 08:06:49;;;;;;;1999.90;999.90;;;5.30;99.90;;;;;;5091687;28;20424;-74
2022/01/22 08:09:15;;;;;;;1999.90;999.90;;;5.40;99.90;;;;;;5091763;28;20425;-74
2022/01/22 08:11:40;;;;;;;1999.90;999.90;;;5.40;99.90;;;;;;5091802;28;20171;-74
2022/01/22 08:14:09;;;;;;;1999.90;999.90;;;5.40;99.90;;;;;;5091558;28;20174;-75
2022/01/22 08:16:35;;;;;;;1999.90;999.90;;;5.40;99.90;;;;;;5091881;28;20623;-74
2022/01/22 08:19:00;;;;;;;1999.90;999.90;;;5.40;99.90;;;;;;5091687;28;20464;-75
2022/01/22 08:21:26;;;;;;;1999.90;999.90;;;5.40;99.90;;;;;;5091733;28;20415;-75
2022/01/22 08:23:51;;;;;;;1999.90;999.90;;;5.50;99.90;;;;;;5091640;28;20198;-74
2022/01/22 08:26:22;;;;;;;1999.90;999.90;;;5.40;99.90;;;;;;5091410;28;20173;-76
2022/01/22 08:28:53;;;;;;;1999.90;999.90;;;5.40;99.90;;;;;;5091865;28;20213;-76
2022/01/22 08:31:36;;;;;;;1999.90;999.90;;;5.50;99.90;;;;;;5091613;28;20532;-77
2022/01/22 08:36:48;;;;;;;1999.90;999.90;;;5.60;99.90;;;;;;5091850;28;20427;-76
2022/01/22 08:39:16;;;;;;;1999.90;999.90;;;5.60;99.90;;;;;;5091333;28;20436;-76
2022/01/22 08:41:43;;;;;;;1999.90;999.90;;;5.60;99.90;;;;;;5091437;28;20308;-76
2022/01/22 08:44:10;;;;;;;1999.90;999.90;;;5.70;99.90;;;;;;5091168;28;20439;-76
2022/01/22 08:46:36;;;;;;;1999.90;999.90;;;5.80;99.90;;;;;;5092987;28;20409;-76
2022/01/22 08:49:04;;;;;;;1999.90;999.90;;;5.90;99.90;;;;;;5095024;28;20427;-76
2022/01/22 08:51:32;;;;;;;1999.90;999.90;;;5.90;99.90;;;;;;5090787;28;20400;-76
2022/01/22 08:54:00;;;;;;;1999.90;999.90;;;5.90;99.90;;;;;;5094519;28;20465;-77
2022/01/22 08:56:26;;;;;;;1999.90;999.90;;;5.90;99.90;;;;;;5094492;28;20501;-76
2022/01/22 08:58:52;;;;;;;1999.90;999.90;;;6.00;99.90;;;;;;5075875;28;20472;-76
2022/01/22 09:01:17;;;;;;;1999.90;999.90;;;6.00;99.90;;;;;;5094556;28;20836;-76
2022/01/22 09:03:43;;;;;;;1999.90;999.90;;;5.90;99.90;;;;;;5094326;28;20523;-75
2022/01/22 09:06:11;;;;;;;1999.90;999.90;;;6.00;99.90;;;;;;5094002;28;20197;-74
2022/01/22 09:08:37;;;;;;;1999.90;999.90;;;6.00;99.90;;;;;;5094483;28;20178;-75
2022/01/22 09:11:03;;;;;;;1999.90;999.90;;;6.00;99.90;;;;;;5094186;28;20397;-75
2022/01/22 09:13:29;;;;;;;1999.90;999.90;;;6.00;99.90;;;;;;5094055;28;20397;-75
2022/01/22 09:15:55;;;;;;;1999.90;999.90;;;6.00;99.90;;;;;;5094186;28;20165;-75
2022/01/22 09:18:21;;;;;;;1999.90;999.90;;;6.00;99.90;;;;;;5094369;28;20453;-74
2022/01/22 09:23:17;;;;;;;1999.90;999.90;;;5.90;99.90;;;;;;5094099;28;20815;-76
2022/01/22 09:25:43;;;;;;;1999.90;999.90;;;5.90;99.90;;;;;;5093776;28;20831;-76
2022/01/22 09:28:11;;;;;;;1999.90;999.90;;;5.90;99.90;;;;;;5093537;28;20420;-76
2022/01/22 09:30:37;;;;;;;1999.90;999.90;;;5.90;99.90;;;;;;5094009;28;20401;-75
2022/01/22 09:33:03;;;;;;;1999.90;999.90;;;6.00;99.90;;;;;;5090784;28;20410;-79
2022/01/22 09:35:29;;;;;;;1999.90;999.90;;;5.90;99.90;;;;;;5073059;28;20402;-75
2022/01/22 09:37:55;;;;;;;1999.90;999.90;;;6.00;99.90;;;;;;5073635;28;20279;-75
2022/01/22 09:40:21;;;;;;;1999.90;999.90;;;5.90;99.90;;;;;;5073977;28;20402;-75
2022/01/22 09:42:47;;;;;;;1999.90;999.90;;;6.00;99.90;;;;;;5073051;28;20151;-76
2022/01/22 09:45:17;;;;;;;1999.90;999.90;;;6.00;99.90;;;;;;5073367;28;20461;-75
2022/01/22 09:47:45;;;;;;;1999.90;999.90;;;6.00;99.90;;;;;;5073917;28;20216;-75
2022/01/22 09:50:12;;;;;;;1999.90;999.90;;;6.00;99.90;;;;;;5073847;28;20910;-76
2022/01/22 09:52:39;;;;;;;1999.90;999.90;;;6.00;99.90;;;;;;5073586;28;20762;-75
2022/01/22 09:55:06;;;;;;;1999.90;999.90;;;6.10;99.90;;;;;;5073634;28;20397;-75
2022/01/22 09:57:35;;;;;;;1999.90;999.90;;;6.10;99.90;;;;;;5072455;28;20498;-76
2022/01/22 10:00:02;;;;;;;1999.90;999.90;;;6.00;99.90;;;;;;5073170;28;20611;-74
2022/01/22 10:02:27;;;;;;;1999.90;999.90;;;6.00;99.90;;;;;;5150080;22;20548;-73
2022/01/22 10:04:53;;;;;;;1999.90;999.90;;;6.00;99.90;;;;;;5092112;28;20455;-74
2022/01/22 10:07:23;;;;;;;1999.90;999.90;;;6.00;99.90;;;;;;5092991;28;20178;-74
2022/01/22 10:10:06;;;;;;;1999.90;999.90;;;6.00;99.90;;;;;;5093052;28;20162;-73
2022/01/22 10:12:46;;;;;;;1999.90;999.90;;;6.00;99.90;;;;;;5092332;28;20464;-72
2022/01/22 10:15:13;;;;;;;1999.90;999.90;;;6.00;99.90;;;;;;5092747;28;20895;-72
2022/01/22 10:17:48;;;;;;;1999.90;999.90;;;6.00;99.90;;;;;;5093006;28;20413;-72
2022/01/22 10:22:50;;;;;;;1999.90;999.90;;;6.00;99.90;;;;;;5092581;28;20481;-73
2022/01/22 10:25:24;;;;;;;1999.90;999.90;;;6.00;99.90;;;;;;5092541;28;20450;-72
2022/01/22 10:28:21;;;;;;;1999.90;999.90;;;6.00;99.90;;;;;;5092346;28;20405;-72
2022/01/22 10:30:51;;;;;;;1999.90;999.90;;;6.00;99.90;;;;;;5091305;28;20218;-72
2022/01/22 10:33:42;;;;;;;1999.90;999.90;;;6.00;99.90;;;;;;5092185;28;20423;-72
2022/01/22 10:36:20;;;;;;;1999.90;999.90;;;6.00;99.90;;;;;;5091717;28;20976;-72
2022/01/22 10:38:49;;;;;;;1999.90;999.90;;;6.00;99.90;;;;;;5092490;28;20483;-72
2022/01/22 10:41:20;;;;;;;1999.90;999.90;;;6.00;99.90;;;;;;5091854;28;20901;-73
2022/01/22 10:43:55;;;;;;;1999.90;999.90;;;6.00;99.90;;;;;;5092269;28;20440;-73
2022/01/22 10:49:01;;;;;;;1999.90;999.90;;;6.10;99.90;;;;;;5092243;28;20392;-73
2022/01/22 10:51:29;;;;;;;1999.90;999.90;;;6.10;99.90;;;;;;5090307;28;20414;-73
2022/01/22 10:54:00;;;;;;;1999.90;999.90;;;6.20;99.90;;;;;;5089530;28;20483;-71
2022/01/22 10:56:28;;;;;;;1999.90;999.90;;;6.20;99.90;;;;;;5088242;28;20255;-73
2022/01/22 10:58:58;;;;;;;1999.90;999.90;;;6.30;99.90;;;;;;5089244;28;20435;-72
2022/01/22 11:01:42;;;;;;;1999.90;999.90;;;6.30;99.90;;;;;;5087869;28;20428;-72
2022/01/22 11:04:11;;;;;;;1999.90;999.90;;;6.40;99.90;;;;;;5087512;28;20487;-73
2022/01/22 11:06:38;;;;;;;1999.90;999.90;;;6.50;99.90;;;;;;5088333;28;20553;-73
2022/01/22 11:09:06;;;;;;;1999.90;999.90;;;6.50;99.90;;;;;;5087582;28;20420;-73
2022/01/22 11:11:36;;;;;;;1999.90;999.90;;;6.60;99.90;;;;;;5087325;28;20419;-73
2022/01/22 11:14:04;;;;;;;1999.90;999.90;;;6.60;99.90;;;;;;5087133;28;20424;-72
2022/01/22 11:16:31;;;;;;;1999.90;999.90;;;6.60;99.90;;;;;;5087628;28;20444;-74
2022/01/22 11:18:58;;;;;;;1999.90;999.90;;;6.60;99.90;;;;;;5087299;28;20779;-74
2022/01/22 11:21:24;;;;;;;1999.90;999.90;;;6.60;99.90;;;;;;5086813;28;20408;-73
2022/01/22 11:23:51;;;;;;;1999.90;999.90;;;6.60;99.90;;;;;;5086965;28;20488;-73
2022/01/22 11:26:17;;;;;;;1999.90;999.90;;;6.70;99.90;;;;;;5086891;28;20408;-74
2022/01/22 11:28:44;;;;;;;1999.90;999.90;;;6.60;99.90;;;;;;5086808;28;20427;-74
2022/01/22 11:31:13;;;;;;;1999.90;999.90;;;6.60;99.90;;;;;;5086455;28;20423;-73
2022/01/22 11:33:42;;;;;;;1999.90;999.90;;;6.60;99.90;;;;;;5086935;28;20427;-72
2022/01/22 11:36:15;;;;;;;1999.90;999.90;;;6.60;99.90;;;;;;5087665;28;20404;-73
2022/01/22 11:38:48;;;;;;;1999.90;999.90;;;6.50;99.90;;;;;;5086558;28;20420;-73
2022/01/22 11:41:19;;;;;;;1999.90;999.90;;;6.50;99.90;;;;;;5086726;28;20879;-72
2022/01/22 11:44:17;;;;;;;1999.90;999.90;;;6.50;99.90;;;;;;5087081;28;20463;-73
2022/01/22 11:46:45;;;;;;;1999.90;999.90;;;6.40;99.90;;;;;;5087146;28;20980;-72
2022/01/22 11:49:21;;;;;;;1999.90;999.90;;;6.30;99.90;;;;;;5086982;28;20404;-72
2022/01/22 11:51:51;;;;;;;1999.90;999.90;;;6.30;99.90;;;;;;5087051;28;20480;-72
2022/01/22 11:54:19;;;;;;;1999.90;999.90;;;6.30;99.90;;;;;;5086483;28;20416;-72
2022/01/22 11:56:50;;;;;;;1999.90;999.90;;;6.30;99.90;;;;;;5087415;28;20922;-72
2022/01/22 11:59:22;;;;;;;1999.90;999.90;;;6.20;99.90;;;;;;5087848;28;20447;-72
2022/01/22 12:01:51;;;;;;;1999.90;999.90;;;6.20;99.90;;;;;;5086747;28;20521;-72
2022/01/22 12:04:17;;;;;;;1999.90;999.90;;;6.20;99.90;;;;;;5086041;28;20839;-72
2022/01/22 12:07:03;;;;;;;1999.90;999.90;;;6.30;99.90;;;;;;5086983;28;20423;-72
2022/01/22 12:15:16;;;;;;;1999.90;999.90;;;6.30;99.90;;;;;;5086512;28;20423;-72
2022/01/22 12:17:49;;;;;;;1999.90;999.90;;;6.40;99.90;;;;;;5087155;28;20498;-72
2022/01/22 12:23:12;;;;;;;1999.90;999.90;;;6.50;99.90;;;;;;5090612;28;21023;-72
2022/01/22 12:25:38;;;;;;;1999.90;999.90;;;6.50;99.90;;;;;;5089822;28;20562;-72
2022/01/22 12:28:05;;;;;;;1999.90;999.90;;;6.50;99.90;;;;;;5091553;28;20996;-72
2022/01/22 12:30:38;;;;;;;1999.90;999.90;;;6.50;99.90;;;;;;5090551;28;20299;-72
2022/01/22 12:33:07;;;;;;;1999.90;999.90;;;6.60;99.90;;;;;;5089642;28;20424;-72
2022/01/22 12:35:42;;;;;;;1999.90;999.90;;;6.60;99.90;;;;;;5090391;28;20412;-72
2022/01/22 12:38:26;;;;;;;1999.90;999.90;;;6.70;99.90;;;;;;5091222;28;20507;-72
2022/01/22 12:40:58;;;;;;;1999.90;999.90;;;6.70;99.90;;;;;;5089897;28;20412;-72
2022/01/22 12:43:34;;;;;;;1999.90;999.90;;;6.70;99.90;;;;;;5090576;28;20475;-72
2022/01/22 12:46:03;;;;;;;1999.90;999.90;;;6.70;99.90;;;;;;5089756;28;20767;-72
2022/01/22 12:48:31;;;;;;;1999.90;999.90;;;6.80;99.90;;;;;;5090166;28;20408;-72
2022/01/22 12:51:01;;;;;;;1999.90;999.90;;;6.80;99.90;;;;;;5090063;28;20412;-72
2022/01/22 12:53:27;;;;;;;1999.90;999.90;;;6.80;99.90;;;;;;5089802;28;20846;-72
2022/01/22 12:58:30;;;;;;;1999.90;999.90;;;6.90;99.90;;;;;;5089922;28;20412;-72
2022/01/22 13:01:35;;;;;;;1999.90;999.90;;;6.90;99.90;;;;;;5089983;28;20419;-72
2022/01/22 13:04:04;;;;;;;1999.90;999.90;;;6.90;99.90;;;;;;4987386;28;21427;-72
2022/01/22 13:06:41;;;;;;;1999.90;999.90;;;6.80;99.90;;;;;;4988074;28;20417;-72
2022/01/22 13:09:07;;;;;;;1999.90;999.90;;;6.90;99.90;;;;;;5045383;28;20415;-72
2022/01/22 13:11:33;;;;;;;1999.90;999.90;;;6.90;99.90;;;;;;5090422;28;20420;-72
2022/01/22 13:14:00;;;;;;;1999.90;999.90;;;6.80;99.90;;;;;;5086843;28;20428;-71
2022/01/22 13:16:26;;;;;;;1999.90;999.90;;;6.80;99.90;;;;;;5089964;28;20821;-73
2022/01/22 13:18:58;;;;;;;1999.90;999.90;;;6.80;99.90;;;;;;5090112;28;20988;-72
2022/01/22 13:21:30;;;;;;;1999.90;999.90;;;6.70;99.90;;;;;;5089592;28;21071;-72
2022/01/22 13:24:06;;;;;;;1999.90;999.90;;;6.70;99.90;;;;;;5088943;28;20459;-73
2022/01/22 13:26:46;;;;;;;1999.90;999.90;;;6.80;99.90;;;;;;5089295;28;20931;-72
2022/01/22 13:29:15;;;;;;;1999.90;999.90;;;6.80;99.90;;;;;;5089329;28;20412;-72
2022/01/22 13:40:51;;;;;;;1999.90;999.90;;;6.70;99.90;;;;;;5090620;28;20431;-72
2022/01/22 13:48:50;;;;;;;1999.90;999.90;;;6.70;99.90;;;;;;5071178;28;20416;-71
2022/01/22 13:51:16;;;;;;;1999.90;999.90;;;6.70;99.90;;;;;;5070416;28;20401;-72
2022/01/22 13:53:45;;;;;;;1999.90;999.90;;;6.70;99.90;;;;;;5070021;28;20175;-71
2022/01/22 13:56:12;;;;;;;1999.90;999.90;;;6.70;99.90;;;;;;5070653;28;20925;-72
2022/01/22 13:58:38;;;;;;;1999.90;999.90;;;6.70;99.90;;;;;;5070601;28;20397;-72
2022/01/22 14:01:27;;;;;;;1999.90;999.90;;;6.70;99.90;;;;;;5069628;28;20765;-71
2022/01/22 14:04:10;;;;;;;1999.90;999.90;;;6.70;99.90;;;;;;5072415;28;20210;-71
2022/01/22 14:06:36;;;;;;;1999.90;999.90;;;6.70;99.90;;;;;;5089615;28;20451;-70
2022/01/22 14:09:13;;;;;;;1999.90;999.90;;;6.60;99.90;;;;;;5089203;28;20435;-72
2022/01/22 14:12:03;;;;;;;1999.90;999.90;;;6.70;99.90;;;;;;5089061;28;20718;-72
2022/01/22 14:14:31;;;;;;;1999.90;999.90;;;6.60;99.90;;;;;;5089159;28;21055;-72
2022/01/22 14:17:11;;;;;;;1999.90;999.90;;;6.70;99.90;;;;;;5089063;28;20423;-71
2022/01/22 14:19:37;;;;;;;1999.90;999.90;;;6.70;99.90;;;;;;5071132;28;20419;-72